KHEQ

Holyoke Airport

Holyoke, Colorado, USA
METAR KHEQ 170750Z AUTO 25010KT 10SM CLR 00/M05 A3019 RMK AO2
Observed Flight Rules
Dec-17 @ 07:50 UTC (34 minutes ago) Visual Flight Rules
Wind Visibility Clouds
250° at 10 knots 10 miles
  • Clear skies
Temperatures Readings
Current 0°C / 32°F
Dewpoint -5°C / 23°F
Humidity 69%
Altimeter 30.19" Hg
Pressure 1022 hPa
Elevation 1137
METAR KHEQ 170750Z AUTO 25010KT 10SM CLR 00/M05 A3019 RMK AO2
Observed Flight Rules
Dec-17 @ 07:50 UTC
(34 minutes ago)
VFR
Wind Visibility
250° at 10 knots 10 miles
Clouds
  • Clear skies
Temperature Dewpoint
0°C / 32°F -5°C / 23°F
Humidity Altimeter Pressure
69% 30.19" Hg 1022 hPa